^^
Station Historical Data
Daily Summary for April 1, 2017 Units:  English    Metric   Both
« Previous Day
Next Day »
Daily Weekly Monthly Yearly Custom
  High: Low: Average:
Temperature: 44.8 °F 34.3 °F 38.7 °F
Dew Point: 38.5 °F 33.3 °F 35.2 °F
Humidity: 97% 71% 88%
Wind Speed: 7.0mph 0.0mph 2.3mph
Wind Gust: 16.0mph - -
Wind- - West
Pressure: 30.07 in 29.69 in -
Precipitation: 0.07 in    
Historical Graphs
 
 
Tabular Data for April 1, 2017
Time Temperature Dew Point Pressure Wind Wind Speed Wind Gust Humidity Rainfall Rate (Hourly) Conditions
00:00 35.4 °F 34.1 °F 29.75 in North 2.0 mph 14.0 mph 95% 0.00 in -RA
00:15 35.4 °F 34.1 °F 29.75 in NNW 3.0 mph 15.0 mph 95% 0.01 in -RA
00:30 35.4 °F 34.1 °F 29.75 in Calm   12.0 mph 95% 0.00 in -RA
00:45 35.4 °F 34.1 °F 29.74 in ESE 3.0 mph 12.0 mph 95% 0.01 in -RA
01:00 35.5 °F 34.2 °F 29.72 in NNE 2.0 mph 12.0 mph 95% 0.00 in -RA
02:15 35.4 °F 34.4 °F 29.72 in North 3.0 mph 9.0 mph 96% 0.00 in -DZ
02:30 35.4 °F 34.3 °F 29.71 in North 2.0 mph 9.0 mph 96% 0.00 in -DZ
02:45 35.3 °F 34.3 °F 29.71 in North 1.0 mph 12.0 mph 96% 0.01 in -DZ
03:00 35.3 °F 34.3 °F 29.71 in NNW 1.0 mph 8.0 mph 96% 0.00 in -DZ
03:15 35.2 °F 34.2 °F 29.72 in NW 1.0 mph 6.0 mph 96% 0.00 in -DZ
03:30 35.1 °F 34.1 °F 29.70 in NNW 1.0 mph 5.0 mph 96% 0.00 in -DZ
03:45 34.9 °F 33.9 °F 29.70 in North 2.0 mph 8.0 mph 96% 0.00 in -DZ
04:00 34.8 °F 33.8 °F 29.69 in NNW 2.0 mph 9.0 mph 96% 0.00 in -DZ
04:15 34.7 °F 33.7 °F 29.69 in NNW 3.0 mph 8.0 mph 96% 0.01 in -DZ
04:30 34.6 °F 33.6 °F 29.70 in NW 1.0 mph 8.0 mph 96% 0.00 in -DZ
04:45 34.5 °F 33.5 °F 29.70 in NNW 2.0 mph 6.0 mph 96% 0.00 in -DZ
05:00 34.5 °F 33.5 °F 29.71 in NNW 1.0 mph 10.0 mph 96% 0.00 in -DZ
05:15 34.5 °F 33.5 °F 29.71 in NNW 2.0 mph 12.0 mph 96% 0.01 in -DZ
05:30 34.6 °F 33.6 °F 29.72 in NW 3.0 mph 9.0 mph 96% 0.00 in -DZ
05:45 34.5 °F 33.5 °F 29.72 in NNW 2.0 mph 10.0 mph 96% 0.00 in -DZ
06:00 34.5 °F 33.5 °F 29.73 in NNW 1.0 mph 8.0 mph 96% 0.00 in -DZ
06:15 34.6 °F 33.6 °F 29.73 in NNW 2.0 mph 10.0 mph 96% 0.00 in -DZ
06:30 34.6 °F 33.6 °F 29.74 in NNW 3.0 mph 9.0 mph 96% 0.01 in -DZ
06:45 34.7 °F 33.7 °F 29.75 in NNW 1.0 mph 6.0 mph 96% 0.00 in -DZ
07:00 34.7 °F 33.7 °F 29.75 in NNW 1.0 mph 10.0 mph 96% 0.00 in -DZ
07:15 34.4 °F 33.4 °F 29.76 in NNW 2.0 mph 9.0 mph 96% 0.01 in -DZ
07:30 34.3 °F 33.3 °F 29.76 in NNW 1.0 mph 8.0 mph 96% 0.00 in -DZ
07:45 34.3 °F 33.5 °F 29.77 in NNW 1.0 mph 9.0 mph 97% 0.00 in -DZ
08:00 34.5 °F 33.7 °F 29.77 in NNW 2.0 mph 10.0 mph 97% 0.00 in -DZ
08:15 34.7 °F 33.9 °F 29.78 in NW 1.0 mph 7.0 mph 97% 0.00 in -RA
08:30 34.9 °F 34.1 °F 29.78 in NNW 1.0 mph 7.0 mph 97% 0.00 in -RA
08:45 35.1 °F 34.3 °F 29.79 in NNW 1.0 mph 10.0 mph 97% 0.00 in -RA
09:00 35.2 °F 34.4 °F 29.79 in NW 3.0 mph 13.0 mph 97% 0.00 in -RA
09:15 35.6 °F 34.8 °F 29.80 in NNW 1.0 mph 9.0 mph 97% 0.00 in OVC
09:30 35.9 °F 35.1 °F 29.81 in NW 5.0 mph 9.0 mph 97% 0.00 in OVC
09:45 36.4 °F 35.6 °F 29.81 in NNW 3.0 mph 12.0 mph 97% 0.00 in OVC
10:00 37.0 °F 36.0 °F 29.81 in NNW 3.0 mph 14.0 mph 96% 0.00 in OVC
10:30 37.9 °F 36.3 °F 29.83 in NNW 3.0 mph 12.0 mph 94% 0.00 in OVC
10:45 38.0 °F 36.2 °F 29.83 in NNW 2.0 mph 13.0 mph 93% 0.00 in OVC
11:00 38.3 °F 36.2 °F 29.84 in NNW 3.0 mph 9.0 mph 92% 0.00 in OVC
11:15 38.1 °F 36.0 °F 29.84 in NNE 1.0 mph 12.0 mph 92% 0.00 in OVC
11:30 38.8 °F 36.7 °F 29.83 in NNW 1.0 mph 9.0 mph 92% 0.00 in OVC
11:45 39.5 °F 36.5 °F 29.84 in NNW 2.0 mph 12.0 mph 89% 0.00 in OVC
12:00 39.5 °F 36.2 °F 29.85 in NNW 6.0 mph 12.0 mph 88% 0.00 in OVC
12:15 39.9 °F 36.3 °F 29.85 in NNW 5.0 mph 12.0 mph 87% 0.00 in BKN
12:30 40.3 °F 36.4 °F 29.85 in North 3.0 mph 10.0 mph 86% 0.00 in BKN
12:45 40.0 °F 36.4 °F 29.85 in NNW 3.0 mph 14.0 mph 87% 0.00 in BKN
13:00 39.7 °F 36.4 °F 29.86 in NNW 5.0 mph 14.0 mph 88% 0.00 in BKN
13:15 40.5 °F 37.2 °F 29.86 in North 3.0 mph 12.0 mph 88% 0.00 in BKN
13:30 40.7 °F 37.1 °F 29.85 in North 3.0 mph 12.0 mph 87% 0.00 in BKN
13:45 41.4 °F 37.2 °F 29.86 in North 5.0 mph 12.0 mph 85% 0.00 in BKN
14:00 40.7 °F 36.5 °F 29.86 in NNW 5.0 mph 13.0 mph 85% 0.00 in BKN
14:15 40.1 °F 35.9 °F 29.87 in NNW 3.0 mph 12.0 mph 85% 0.00 in -DZ
14:30 40.1 °F 36.0 °F 29.87 in North 3.0 mph 13.0 mph 85% 0.00 in -DZ
14:45 40.2 °F 35.8 °F 29.88 in NNW 7.0 mph 16.0 mph 84% 0.00 in -DZ
15:00 40.6 °F 36.1 °F 29.88 in North 2.0 mph 16.0 mph 84% 0.00 in -DZ
15:15 40.5 °F 35.7 °F 29.89 in North 6.0 mph 13.0 mph 83% 0.00 in OVC
15:30 40.6 °F 35.8 °F 29.89 in North 7.0 mph 14.0 mph 83% 0.00 in OVC
15:45 40.8 °F 36.0 °F 29.90 in North 6.0 mph 14.0 mph 83% 0.00 in OVC
16:00 41.0 °F 36.2 °F 29.91 in NNE 5.0 mph 12.0 mph 83% 0.00 in OVC
16:15 40.0 °F 37.0 °F 29.91 in North 5.0 mph 14.0 mph 89% 0.00 in OVC
16:30 41.5 °F 38.5 °F 29.92 in North 5.0 mph 13.0 mph 89% 0.00 in OVC
16:45 42.4 °F 37.6 °F 29.93 in North 5.0 mph 12.0 mph 83% 0.00 in OVC
17:00 42.9 °F 37.2 °F 29.93 in NNW 2.0 mph 10.0 mph 80% 0.00 in OVC
17:15 43.6 °F 36.8 °F 29.93 in NW 1.0 mph 10.0 mph 77% 0.00 in BKN
17:30 43.8 °F 36.7 °F 29.94 in NNW 2.0 mph 12.0 mph 76% 0.00 in BKN
17:45 44.1 °F 36.3 °F 29.95 in North 2.0 mph 9.0 mph 74% 0.00 in BKN
18:00 44.0 °F 35.9 °F 29.95 in NNW 6.0 mph 12.0 mph 73% 0.00 in BKN
18:15 43.7 °F 36.0 °F 29.96 in NNW 2.0 mph 14.0 mph 74% 0.00 in BKN
18:30 44.6 °F 36.9 °F 29.97 in North 1.0 mph 10.0 mph 74% 0.00 in BKN
18:45 44.8 °F 35.9 °F 29.97 in North 5.0 mph 10.0 mph 71% 0.00 in BKN
19:00 43.8 °F 35.4 °F 29.98 in NNW 2.0 mph 12.0 mph 72% 0.00 in BKN
19:15 43.6 °F 35.5 °F 30.00 in NNW 2.0 mph 8.0 mph 73% 0.00 in BKN
19:30 43.4 °F 35.3 °F 30.00 in North 1.0 mph 10.0 mph 73% 0.00 in BKN
19:45 43.1 °F 35.4 °F 30.00 in NNW 1.0 mph 8.0 mph 74% 0.00 in BKN
20:00 42.9 °F 35.5 °F 30.00 in NNW 2.0 mph 8.0 mph 75% 0.00 in BKN
20:15 42.8 °F 35.7 °F 30.01 in NNW 2.0 mph 5.0 mph 76% 0.00 in BKN
20:30 42.5 °F 35.1 °F 30.02 in NNW 1.0 mph 9.0 mph 75% 0.00 in BKN
20:45 42.3 °F 35.0 °F 30.02 in Calm   7.0 mph 75% 0.00 in BKN
21:00 42.1 °F 35.1 °F 30.02 in NW 2.0 mph 5.0 mph 76% 0.00 in BKN
21:15 41.7 °F 34.7 °F 30.02 in Calm   2.0 mph 76% 0.00 in BKN
21:30 40.8 °F 34.5 °F 30.03 in Calm   1.0 mph 78% 0.00 in BKN
21:45 40.7 °F 34.7 °F 30.04 in Calm   3.0 mph 79% 0.00 in BKN
22:00 40.7 °F 35.0 °F 30.05 in Calm   4.0 mph 80% 0.00 in BKN
22:15 40.7 °F 35.0 °F 30.04 in NNE 1.0 mph 4.0 mph 80% 0.00 in BKN
22:30 40.6 °F 34.9 °F 30.04 in Calm   3.0 mph 80% 0.00 in BKN
22:45 40.6 °F 35.0 °F 30.05 in NNW 1.0 mph 3.0 mph 80% 0.00 in BKN
23:00 40.7 °F 35.0 °F 30.06 in NNW 1.0 mph 3.0 mph 80% 0.00 in BKN
23:15 40.7 °F 35.0 °F 30.06 in NNE 1.0 mph 4.0 mph 80% 0.00 in OVC
23:30 40.7 °F 35.3 °F 30.07 in Calm   2.0 mph 81% 0.00 in OVC
23:45 40.7 °F 35.3 °F 30.07 in Calm   2.0 mph 81% 0.00 in OVC
TarryTown NY Weather
Compliments of Weather Underground - 1.5 mb